AZA1961 LIEE-LIMC
Flight info
| Callsign | AZA1961 |
|---|---|
| Flight time | N/A |
| Altitude | 30000 |
| Route | KOVAS DCT DEXUL DCT GIGGI DCT UPDUT DCT CORSI DCT OKROK DCT AKUTI DCT TORTU DCT ANAKI P860 DEVOX |
| Aircraft | A343/H-SDE2E3FGHIJ4J5M1RWXY/LB1D1 |
Departure
| Time | 2026-05-05 15:28 |
|---|---|
| Airport | Cagliari Elmas Airport (LIEE) |
Arrival
| Time | N/A |
|---|---|
| Airport | Milan Malpensa International Airport (LIMC) |
| Time | Latitude | Longitude | Altitude | Speed | Heading |
|---|---|---|---|---|---|
| 2026-05-05 15:14 | 39.25522 | 9.05851 | 19 ft | 0 kts | 322° |
| 2026-05-05 15:20 | 39.25522 | 9.05850 | 19 ft | 0 kts | 322° |
| 2026-05-05 15:21 | 39.25513 | 9.05859 | 21 ft | 2 kts | 322° |
| 2026-05-05 15:21 | 39.25499 | 9.05872 | 22 ft | 3 kts | 310° |
| 2026-05-05 15:21 | 39.25495 | 9.05878 | 23 ft | 0 kts | 297° |
| 2026-05-05 15:21 | 39.25495 | 9.05875 | 23 ft | 2 kts | 283° |
| 2026-05-05 15:22 | 39.25493 | 9.05880 | 23 ft | 0 kts | 269° |
| 2026-05-05 15:22 | 39.25492 | 9.05873 | 23 ft | 2 kts | 263° |
| 2026-05-05 15:22 | 39.25466 | 9.05846 | 20 ft | 6 kts | 206° |
| 2026-05-05 15:22 | 39.25408 | 9.05809 | 19 ft | 17 kts | 206° |
| 2026-05-05 15:23 | 39.25337 | 9.05705 | 19 ft | 15 kts | 266° |
| 2026-05-05 15:23 | 39.25384 | 9.05594 | 19 ft | 14 kts | 293° |
| 2026-05-05 15:23 | 39.25404 | 9.05476 | 19 ft | 13 kts | 281° |
| 2026-05-05 15:23 | 39.25438 | 9.05368 | 19 ft | 13 kts | 311° |
| 2026-05-05 15:24 | 39.25502 | 9.05290 | 19 ft | 13 kts | 316° |
| 2026-05-05 15:24 | 39.25565 | 9.05213 | 19 ft | 13 kts | 316° |
| 2026-05-05 15:24 | 39.25629 | 9.05135 | 19 ft | 13 kts | 316° |
| 2026-05-05 15:24 | 39.25693 | 9.05056 | 19 ft | 13 kts | 316° |
| 2026-05-05 15:25 | 39.25759 | 9.04982 | 19 ft | 12 kts | 320° |
| 2026-05-05 15:25 | 39.25826 | 9.04910 | 19 ft | 13 kts | 320° |
| 2026-05-05 15:25 | 39.25894 | 9.04836 | 19 ft | 13 kts | 317° |
| 2026-05-05 15:25 | 39.25959 | 9.04758 | 19 ft | 13 kts | 317° |
| 2026-05-05 15:26 | 39.26024 | 9.04680 | 19 ft | 13 kts | 317° |
| 2026-05-05 15:26 | 39.26091 | 9.04600 | 19 ft | 13 kts | 315° |
| 2026-05-05 15:26 | 39.26122 | 9.04495 | 19 ft | 13 kts | 274° |
| 2026-05-05 15:26 | 39.26092 | 9.04397 | 19 ft | 12 kts | 221° |
| 2026-05-05 15:27 | 39.26032 | 9.04415 | 18 ft | 9 kts | 141° |
| 2026-05-05 15:27 | 39.26025 | 9.04422 | 18 ft | 0 kts | 141° |
| 2026-05-05 15:27 | 39.25898 | 9.04551 | 18 ft | 53 kts | 142° |
| 2026-05-05 15:27 | 39.25487 | 9.05024 | 19 ft | 104 kts | 137° |
| 2026-05-05 15:28 | 39.24841 | 9.05776 | 22 ft | 145 kts | 138° |
| 2026-05-05 15:28 | 39.24021 | 9.06718 | 309 ft | 155 kts | 140° |
| 2026-05-05 15:28 | 39.23225 | 9.07558 | 1070 ft | 141 kts | 143° |
| 2026-05-05 15:28 | 39.22475 | 9.08282 | 1686 ft | 129 kts | 146° |
| 2026-05-05 15:29 | 39.21755 | 9.08897 | 2167 ft | 120 kts | 150° |
| 2026-05-05 15:29 | 39.21029 | 9.09325 | 2535 ft | 112 kts | 163° |
| 2026-05-05 15:29 | 39.20236 | 9.09492 | 2683 ft | 133 kts | 172° |
| 2026-05-05 15:29 | 39.19175 | 9.09624 | 2697 ft | 170 kts | 175° |
| 2026-05-05 15:30 | 39.17971 | 9.09757 | 2972 ft | 178 kts | 175° |
| 2026-05-05 15:30 | 39.16689 | 9.09899 | 3412 ft | 191 kts | 175° |
| 2026-05-05 15:30 | 39.15346 | 9.10048 | 3908 ft | 201 kts | 176° |
| 2026-05-05 15:30 | 39.13928 | 9.10205 | 4455 ft | 210 kts | 177° |
| 2026-05-05 15:31 | 39.12422 | 9.10375 | 4966 ft | 224 kts | 178° |
| 2026-05-05 15:31 | 39.10874 | 9.10096 | 5494 ft | 230 kts | 205° |
| 2026-05-05 15:31 | 39.09623 | 9.08777 | 6055 ft | 234 kts | 236° |
| 2026-05-05 15:31 | 39.09079 | 9.06841 | 6618 ft | 238 kts | 261° |
| 2026-05-05 15:32 | 39.08972 | 9.04648 | 7114 ft | 256 kts | 271° |
| 2026-05-05 15:32 | 39.09463 | 9.02374 | 7647 ft | 273 kts | 298° |
| 2026-05-05 15:32 | 39.10850 | 9.00697 | 8451 ft | 282 kts | 331° |
| 2026-05-05 15:32 | 39.12792 | 9.00187 | 9246 ft | 293 kts | 359° |
| 2026-05-05 15:33 | 39.14831 | 9.00136 | 9922 ft | 293 kts | 342° |
| 2026-05-05 15:33 | 39.16793 | 8.99359 | 10443 ft | 302 kts | 337° |
| 2026-05-05 15:33 | 39.18852 | 8.98497 | 10747 ft | 320 kts | 339° |
| 2026-05-05 15:33 | 39.21052 | 8.97672 | 11051 ft | 338 kts | 341° |
| 2026-05-05 15:34 | 39.23374 | 8.96854 | 11369 ft | 353 kts | 342° |
| 2026-05-05 15:34 | 39.25860 | 8.96508 | 11834 ft | 369 kts | 1° |
| 2026-05-05 15:34 | 39.28385 | 8.97309 | 12442 ft | 380 kts | 21° |
| 2026-05-05 15:34 | 39.30747 | 8.98881 | 13073 ft | 386 kts | 27° |
| 2026-05-05 15:35 | 39.33107 | 9.00584 | 13703 ft | 390 kts | 26° |
| 2026-05-05 15:35 | 39.34713 | 9.01643 | 14071 ft | 393 kts | 24° |
| 2026-05-05 15:35 | 39.38132 | 9.03315 | 14875 ft | 394 kts | 12° |
| 2026-05-05 15:35 | 39.40795 | 9.04161 | 15503 ft | 395 kts | 9° |
| 2026-05-05 15:36 | 39.42583 | 9.04637 | 15918 ft | 398 kts | 8° |
| 2026-05-05 15:36 | 39.45322 | 9.05280 | 16554 ft | 400 kts | 7° |
| 2026-05-05 15:36 | 39.48077 | 9.05874 | 17158 ft | 403 kts | 6° |
| 2026-05-05 15:36 | 39.50859 | 9.06457 | 17716 ft | 408 kts | 6° |
| 2026-05-05 15:37 | 39.53701 | 9.07055 | 18023 ft | 420 kts | 6° |
| 2026-05-05 15:37 | 39.56609 | 9.07677 | 18404 ft | 427 kts | 6° |
| 2026-05-05 15:37 | 39.59561 | 9.08321 | 18839 ft | 433 kts | 6° |
| 2026-05-05 15:37 | 39.62545 | 9.08981 | 19328 ft | 437 kts | 6° |
| 2026-05-05 15:38 | 39.65552 | 9.09653 | 19833 ft | 440 kts | 6° |
| 2026-05-05 15:38 | 39.68575 | 9.10331 | 20353 ft | 443 kts | 6° |
| 2026-05-05 15:38 | 39.71622 | 9.11013 | 20856 ft | 446 kts | 6° |
| 2026-05-05 15:38 | 39.74688 | 9.11702 | 21330 ft | 449 kts | 6° |
| 2026-05-05 15:39 | 39.77779 | 9.12397 | 21810 ft | 452 kts | 6° |
| 2026-05-05 15:39 | 39.80888 | 9.13093 | 22285 ft | 455 kts | 5° |
| 2026-05-05 15:39 | 39.83980 | 9.13778 | 22753 ft | 457 kts | 4° |
| 2026-05-05 15:39 | 39.87141 | 9.14194 | 23220 ft | 458 kts | 359° |
| 2026-05-05 15:40 | 39.90330 | 9.14458 | 23672 ft | 460 kts | 358° |
| 2026-05-05 15:40 | 39.93533 | 9.14658 | 24055 ft | 463 kts | 358° |
| 2026-05-05 15:40 | 39.96760 | 9.14826 | 24416 ft | 465 kts | 357° |
| 2026-05-05 15:40 | 40.00009 | 9.14984 | 24752 ft | 469 kts | 357° |
| 2026-05-05 15:41 | 40.03277 | 9.15141 | 25099 ft | 471 kts | 357° |
| 2026-05-05 15:41 | 40.06559 | 9.15301 | 25406 ft | 473 kts | 357° |
| 2026-05-05 15:41 | 40.09865 | 9.15469 | 25745 ft | 477 kts | 357° |
| 2026-05-05 15:41 | 40.13192 | 9.15640 | 26082 ft | 480 kts | 357° |
| 2026-05-05 15:42 | 40.16537 | 9.15811 | 26400 ft | 483 kts | 357° |
| 2026-05-05 15:42 | 40.19908 | 9.15985 | 26741 ft | 486 kts | 357° |
| 2026-05-05 15:42 | 40.23295 | 9.16112 | 27033 ft | 487 kts | 353° |